createdAt,value
2022-10-17T00:01:26.323Z,11.68
2022-10-17T00:03:52.632Z,11.57
2022-10-17T00:06:18.861Z,10.93
2022-10-17T00:08:45.367Z,11.60
2022-10-17T00:11:16.639Z,8.38
2022-10-17T00:13:42.994Z,15.82
2022-10-17T00:16:09.676Z,9.90
2022-10-17T00:18:35.933Z,15.88
2022-10-17T00:21:02.224Z,11.73
2022-10-17T00:23:30.195Z,12.55
2022-10-17T00:26:03.674Z,10.88
2022-10-17T00:28:30.303Z,11.02
2022-10-17T00:30:57.459Z,9.23
2022-10-17T00:33:23.894Z,11.75
2022-10-17T00:35:50.124Z,12.40
2022-10-17T00:38:16.409Z,13.82
2022-10-17T00:40:42.776Z,10.77
2022-10-17T00:43:18.216Z,10.40
2022-10-17T00:45:44.514Z,11.93
2022-10-17T00:48:11.455Z,8.57
2022-10-17T00:50:38.989Z,9.57
2022-10-17T00:53:05.815Z,15.00
2022-10-17T00:55:35.107Z,10.43
2022-10-17T00:58:02.981Z,13.85
2022-10-17T01:00:29.556Z,12.05
2022-10-17T01:02:55.775Z,10.82
2022-10-17T01:05:22.615Z,8.65
2022-10-17T01:07:50.576Z,12.43
2022-10-17T01:10:17.320Z,10.85
2022-10-17T01:13:02.167Z,11.60
2022-10-17T01:15:47.362Z,9.52
2022-10-17T01:18:26.075Z,13.75
2022-10-17T01:21:10.931Z,14.02
2022-10-17T01:23:52.097Z,13.68
2022-10-17T01:26:36.995Z,14.80
2022-10-17T01:29:03.375Z,13.90
2022-10-17T01:31:36.928Z,13.52
2022-10-17T01:34:09.300Z,10.93
2022-10-17T01:36:35.490Z,11.13
2022-10-17T01:39:01.835Z,10.13
2022-10-17T01:41:38.897Z,10.90
2022-10-17T01:44:08.933Z,12.15
2022-10-17T01:46:39.135Z,14.85
2022-10-17T01:49:09.686Z,8.82
2022-10-17T01:51:38.475Z,10.88
2022-10-17T01:54:04.740Z,9.32
2022-10-17T01:56:32.666Z,17.85
2022-10-17T01:59:01.486Z,11.05
2022-10-17T02:01:29.111Z,14.55
2022-10-17T02:03:56.383Z,11.40
2022-10-17T02:06:22.617Z,14.68
2022-10-17T02:08:49.627Z,13.88
2022-10-17T02:11:26.101Z,9.18
2022-10-17T02:14:13.370Z,10.98
2022-10-17T02:16:51.433Z,10.55
2022-10-17T02:19:37.966Z,11.13
2022-10-17T02:22:16.323Z,11.88
2022-10-17T02:24:47.223Z,12.48
2022-10-17T02:27:19.299Z,11.52
2022-10-17T02:29:50.101Z,13.23
2022-10-17T02:32:23.634Z,12.00
2022-10-17T02:34:55.253Z,12.68
2022-10-17T02:37:23.874Z,15.23
2022-10-17T02:39:50.695Z,16.67
2022-10-17T02:42:17.858Z,17.70
2022-10-17T02:44:44.910Z,15.10
2022-10-17T02:47:16.119Z,18.15
2022-10-17T02:49:44.702Z,12.30
2022-10-17T02:52:14.260Z,19.08
2022-10-17T02:54:47.882Z,16.20
2022-10-17T02:57:16.906Z,13.10
2022-10-17T02:59:45.171Z,11.82
2022-10-17T03:02:11.583Z,9.73
2022-10-17T03:04:38.299Z,11.75
2022-10-17T03:07:04.520Z,14.00
2022-10-17T03:09:30.813Z,10.57
2022-10-17T03:11:57.036Z,11.05
2022-10-17T03:14:23.280Z,15.40
2022-10-17T03:16:49.491Z,13.10
2022-10-17T03:19:15.723Z,15.60
2022-10-17T03:21:42.000Z,11.35
2022-10-17T03:24:08.542Z,9.57
2022-10-17T03:26:34.857Z,8.90
2022-10-17T03:29:01.402Z,12.27
2022-10-17T03:31:27.683Z,11.05
2022-10-17T03:33:54.068Z,14.82
2022-10-17T03:36:20.592Z,12.20
2022-10-17T03:38:47.005Z,11.85
2022-10-17T03:41:13.278Z,9.55
2022-10-17T03:43:39.988Z,11.50
2022-10-17T03:46:06.753Z,10.38
2022-10-17T03:48:33.418Z,12.18
2022-10-17T03:51:04.423Z,16.50
2022-10-17T03:53:30.811Z,10.82
2022-10-17T03:55:57.540Z,17.63
2022-10-17T03:58:23.776Z,11.68
2022-10-17T04:00:50.081Z,17.30
2022-10-17T04:03:17.430Z,11.88
2022-10-17T04:05:43.802Z,11.23
2022-10-17T04:08:10.021Z,11.80
2022-10-17T04:10:36.307Z,11.07
2022-10-17T04:13:02.567Z,11.80
2022-10-17T04:15:28.962Z,15.23
2022-10-17T04:17:55.216Z,14.65
2022-10-17T04:20:21.455Z,11.07
2022-10-17T04:22:47.702Z,12.80
2022-10-17T04:25:13.969Z,10.05
2022-10-17T04:27:40.177Z,12.23
2022-10-17T04:30:06.716Z,14.63
2022-10-17T04:32:35.988Z,13.05
2022-10-17T04:35:02.211Z,11.75
2022-10-17T04:37:28.927Z,15.02
2022-10-17T04:39:55.170Z,13.07
2022-10-17T04:42:21.403Z,15.20
2022-10-17T04:44:47.697Z,11.07
2022-10-17T04:47:13.915Z,10.95
2022-10-17T04:52:11.297Z,13.50
2022-10-17T04:54:37.529Z,13.98
2022-10-17T04:57:03.817Z,10.80
2022-10-17T04:59:31.155Z,15.48
2022-10-17T05:01:57.364Z,14.63
2022-10-17T05:04:24.874Z,11.18
2022-10-17T05:06:51.267Z,12.68
2022-10-17T05:09:17.473Z,14.43
2022-10-17T05:11:43.709Z,18.25
2022-10-17T05:14:09.984Z,13.65
2022-10-17T05:16:36.351Z,15.80
2022-10-17T05:19:02.667Z,10.82
2022-10-17T05:21:29.451Z,12.73
2022-10-17T05:23:55.760Z,14.13
2022-10-17T05:26:22.565Z,16.92
2022-10-17T05:28:48.872Z,12.30
2022-10-17T05:31:15.425Z,19.88
2022-10-17T05:33:41.688Z,12.98
2022-10-17T05:36:08.280Z,10.27
2022-10-17T05:38:34.770Z,13.10
2022-10-17T05:41:02.003Z,9.35
2022-10-17T05:43:28.338Z,12.15
2022-10-17T05:45:55.110Z,14.23
2022-10-17T05:48:22.094Z,13.75
2022-10-17T05:50:48.711Z,13.05
2022-10-17T05:53:15.484Z,12.88
2022-10-17T05:55:41.703Z,10.07
2022-10-17T05:58:07.999Z,15.85
2022-10-17T06:00:34.320Z,13.27
2022-10-17T06:03:00.582Z,13.55
2022-10-17T06:05:26.930Z,12.23
2022-10-17T06:07:55.083Z,13.35
2022-10-17T06:10:24.322Z,10.13
2022-10-17T06:12:50.542Z,8.50
2022-10-17T06:15:16.842Z,12.85
2022-10-17T06:17:43.055Z,12.88
2022-10-17T06:20:09.538Z,9.63
2022-10-17T06:22:35.749Z,9.07
2022-10-17T06:25:01.960Z,12.50
2022-10-17T06:27:28.188Z,11.00
2022-10-17T06:29:54.434Z,10.63
2022-10-17T06:32:20.784Z,12.48
2022-10-17T06:34:47.167Z,10.02
2022-10-17T06:37:13.387Z,12.57
2022-10-17T06:39:39.651Z,16.00
2022-10-17T06:42:05.876Z,10.23
2022-10-17T06:44:32.170Z,10.05
2022-10-17T06:47:01.394Z,10.40
2022-10-17T06:49:27.761Z,9.95
2022-10-17T06:51:54.364Z,11.20
2022-10-17T06:54:20.723Z,9.63
2022-10-17T06:56:47.011Z,13.93
2022-10-17T06:59:13.348Z,11.23
2022-10-17T07:01:41.827Z,9.80
2022-10-17T07:04:10.815Z,10.30
2022-10-17T07:06:37.889Z,11.88
2022-10-17T07:09:06.632Z,11.65
2022-10-17T07:11:34.963Z,15.70
2022-10-17T07:14:01.593Z,10.48
2022-10-17T07:16:28.088Z,15.82
2022-10-17T07:18:54.707Z,14.02
2022-10-17T07:21:21.087Z,19.25
2022-10-17T07:23:47.348Z,13.50
2022-10-17T07:26:15.218Z,9.77
2022-10-17T07:28:42.612Z,11.80
2022-10-17T07:31:10.276Z,13.02
2022-10-17T07:33:36.598Z,14.10
2022-10-17T07:36:03.591Z,11.48
2022-10-17T07:38:29.951Z,9.40
2022-10-17T07:40:56.911Z,9.23
2022-10-17T07:43:23.861Z,12.85
2022-10-17T07:45:50.472Z,14.65
2022-10-17T07:48:16.691Z,9.85
2022-10-17T07:50:42.911Z,14.82
2022-10-17T07:53:09.200Z,11.25
2022-10-17T07:55:36.845Z,10.65
2022-10-17T07:58:03.087Z,12.15
2022-10-17T08:00:29.476Z,10.57
2022-10-17T08:02:55.721Z,16.92
2022-10-17T08:05:21.964Z,15.65
2022-10-17T08:07:48.288Z,10.90
2022-10-17T08:10:15.500Z,13.98
2022-10-17T08:12:41.799Z,11.45
2022-10-17T08:15:08.431Z,14.13
2022-10-17T08:17:35.435Z,12.85
2022-10-17T08:20:01.749Z,15.10
2022-10-17T08:22:28.235Z,17.48
2022-10-17T08:24:54.687Z,11.57
2022-10-17T08:27:24.628Z,13.88
2022-10-17T08:29:53.395Z,12.23
2022-10-17T08:32:20.739Z,15.65
2022-10-17T08:34:46.975Z,16.55
2022-10-17T08:37:16.146Z,20.52
2022-10-17T08:39:42.890Z,15.07
2022-10-17T08:42:35.451Z,15.85
2022-10-17T08:45:14.612Z,12.52
2022-10-17T08:47:42.463Z,11.93
2022-10-17T08:50:18.234Z,18.35
2022-10-17T08:53:01.170Z,13.43
2022-10-17T08:55:37.826Z,15.07
2022-10-17T08:58:35.768Z,28.42
2022-10-17T09:01:13.244Z,14.98
2022-10-17T09:03:58.426Z,14.10
2022-10-17T09:06:29.910Z,13.70
2022-10-17T09:08:58.954Z,10.88
2022-10-17T09:11:43.813Z,15.40
2022-10-17T09:14:28.795Z,12.75
2022-10-17T09:17:07.357Z,16.25
2022-10-17T09:19:38.775Z,10.82
2022-10-17T09:22:08.730Z,17.63
2022-10-17T09:25:04.387Z,10.07
2022-10-17T09:27:40.238Z,12.07
2022-10-17T09:30:44.029Z,15.50
2022-10-17T09:33:34.289Z,9.73
2022-10-17T09:36:03.829Z,12.38
2022-10-17T09:38:36.477Z,11.10
2022-10-17T09:41:02.757Z,13.93
2022-10-17T09:43:29.093Z,13.18
2022-10-17T09:46:08.267Z,14.98
2022-10-17T09:48:53.234Z,14.73
2022-10-17T09:51:25.850Z,10.80
2022-10-17T09:53:55.469Z,18.52
2022-10-17T09:56:21.800Z,11.95
2022-10-17T09:58:48.023Z,15.65
2022-10-17T10:01:22.719Z,13.98
2022-10-17T10:04:08.527Z,18.95
2022-10-17T10:06:34.865Z,12.20
2022-10-17T10:09:04.904Z,16.13
2022-10-17T10:11:45.187Z,10.93
2022-10-17T10:14:12.932Z,11.85
2022-10-17T10:16:43.063Z,11.48
2022-10-17T10:19:20.163Z,15.18
2022-10-17T10:22:00.539Z,14.52
2022-10-17T10:24:30.892Z,15.05
2022-10-17T10:27:02.831Z,17.08
2022-10-17T10:29:34.063Z,13.93
2022-10-17T10:32:09.445Z,14.02
2022-10-17T10:34:36.437Z,12.68
2022-10-17T10:37:04.411Z,12.95
2022-10-17T10:39:33.777Z,11.88
2022-10-17T10:42:01.074Z,14.73
2022-10-17T10:44:29.770Z,18.17
2022-10-17T10:47:14.644Z,16.27
2022-10-17T10:49:41.444Z,11.32
2022-10-17T10:52:08.823Z,9.07
2022-10-17T10:54:41.330Z,11.77
2022-10-17T10:57:10.536Z,14.60
2022-10-17T10:59:39.625Z,11.82
2022-10-17T11:02:24.350Z,11.48
2022-10-17T11:04:55.858Z,13.15
2022-10-17T11:07:31.938Z,13.63
2022-10-17T11:10:03.456Z,16.10
2022-10-17T11:12:39.028Z,12.18
2022-10-17T11:15:20.911Z,11.05
2022-10-17T11:17:50.131Z,13.05
2022-10-17T11:20:22.422Z,14.18
2022-10-17T11:22:49.482Z,12.07
2022-10-17T11:25:15.726Z,11.60
2022-10-17T11:27:41.942Z,13.40
2022-10-17T11:30:12.354Z,12.60
2022-10-17T11:32:41.639Z,11.70
2022-10-17T11:35:14.811Z,12.43
2022-10-17T11:37:45.987Z,9.27
2022-10-17T11:40:20.406Z,10.57
2022-10-17T11:42:52.903Z,12.05
2022-10-17T11:45:21.735Z,9.90
2022-10-17T11:47:57.946Z,10.82
2022-10-17T11:53:20.429Z,11.70
2022-10-17T11:55:47.131Z,11.07
2022-10-17T11:58:22.885Z,12.43
2022-10-17T12:01:10.889Z,15.13
2022-10-17T12:03:55.755Z,9.80
2022-10-17T12:06:37.299Z,10.07
2022-10-17T12:09:11.974Z,9.85
2022-10-17T12:11:56.433Z,11.48
2022-10-17T12:14:38.136Z,13.93
2022-10-17T12:17:05.682Z,12.20
2022-10-17T12:19:33.751Z,9.45
2022-10-17T12:22:02.951Z,9.43
2022-10-17T12:24:49.587Z,10.27
2022-10-17T12:27:36.205Z,9.68
2022-10-17T12:30:22.877Z,7.15
2022-10-17T12:33:08.553Z,14.15
2022-10-17T12:35:35.896Z,10.75
2022-10-17T12:38:18.995Z,13.88
2022-10-17T12:40:48.964Z,8.65
2022-10-17T12:43:15.473Z,8.60
2022-10-17T12:45:44.480Z,8.95
2022-10-17T12:48:10.726Z,8.52
2022-10-17T12:50:58.361Z,8.32
2022-10-17T12:53:46.224Z,13.18
2022-10-17T12:56:17.406Z,8.70
2022-10-17T12:58:47.952Z,8.02
2022-10-17T13:03:56.387Z,11.18
2022-10-17T13:06:24.236Z,11.73
2022-10-17T13:08:56.859Z,11.38
2022-10-17T13:11:26.356Z,8.82
2022-10-17T13:13:53.923Z,13.48
2022-10-17T13:16:34.007Z,10.23
2022-10-17T13:19:01.342Z,10.75
2022-10-17T13:21:28.854Z,10.95
2022-10-17T13:23:55.343Z,10.10
2022-10-17T13:26:23.331Z,10.75
2022-10-17T13:29:02.845Z,11.20
2022-10-17T13:31:33.587Z,9.20
2022-10-17T13:36:27.204Z,11.40
2022-10-17T13:38:53.663Z,10.52
2022-10-17T13:41:37.073Z,8.63
2022-10-17T13:44:07.505Z,11.35
2022-10-17T13:46:38.944Z,9.73
2022-10-17T13:49:16.746Z,9.18
2022-10-17T13:51:44.431Z,6.88
2022-10-17T13:54:17.941Z,8.18
2022-10-17T13:56:44.296Z,10.88
2022-10-17T13:59:23.000Z,11.75
2022-10-17T14:01:49.851Z,8.70
2022-10-17T14:04:20.073Z,9.00
2022-10-17T14:09:22.316Z,9.55
2022-10-17T14:11:57.692Z,7.90
2022-10-17T14:14:25.951Z,9.07
2022-10-17T14:16:52.695Z,8.43
2022-10-17T14:19:27.252Z,11.00
2022-10-17T14:22:14.749Z,8.65
2022-10-17T14:24:42.196Z,10.30
2022-10-17T14:27:27.105Z,13.55
2022-10-17T14:29:54.797Z,9.73
2022-10-17T14:32:22.080Z,9.70
2022-10-17T14:34:52.244Z,6.88
2022-10-17T14:37:37.096Z,9.13
2022-10-17T14:40:04.885Z,8.68
2022-10-17T14:42:31.228Z,11.98
2022-10-17T14:45:03.140Z,8.23
2022-10-17T14:47:44.803Z,12.20
2022-10-17T14:50:11.175Z,7.45
2022-10-17T14:52:38.831Z,10.20
2022-10-17T14:55:21.860Z,9.70
2022-10-17T14:57:48.076Z,6.60
2022-10-17T15:00:17.863Z,7.28
2022-10-17T15:02:44.763Z,7.63
2022-10-17T15:05:13.485Z,9.45
2022-10-17T15:07:40.223Z,9.25
2022-10-17T15:10:06.788Z,7.10
2022-10-17T15:12:33.124Z,8.48
2022-10-17T15:14:59.351Z,12.25
2022-10-17T15:17:30.240Z,13.98
2022-10-17T15:19:57.056Z,8.77
2022-10-17T15:22:23.804Z,12.13
2022-10-17T15:24:50.139Z,9.02
2022-10-17T15:27:18.015Z,9.48
2022-10-17T15:29:44.543Z,6.65
2022-10-17T15:32:10.775Z,11.13
2022-10-17T15:34:36.998Z,7.75
2022-10-17T15:37:03.947Z,9.27
2022-10-17T15:39:30.202Z,12.05
2022-10-17T15:41:56.449Z,13.23
2022-10-17T15:44:22.692Z,14.57
2022-10-17T15:46:48.914Z,11.55
2022-10-17T15:49:17.627Z,8.25
2022-10-17T15:51:43.863Z,10.82
2022-10-17T15:54:10.242Z,9.32
2022-10-17T15:56:44.190Z,12.10
2022-10-17T15:59:15.200Z,9.82
2022-10-17T16:01:41.804Z,10.88
2022-10-17T16:04:13.108Z,11.18
2022-10-17T16:06:39.334Z,15.63
2022-10-17T16:09:05.606Z,11.88
2022-10-17T16:11:34.618Z,14.77
2022-10-17T16:14:02.119Z,8.48
2022-10-17T16:16:28.640Z,8.15
2022-10-17T16:18:54.910Z,8.57
2022-10-17T16:21:22.925Z,8.23
2022-10-17T16:23:49.209Z,11.30
2022-10-17T16:26:15.982Z,14.20
2022-10-17T16:28:46.296Z,10.73
2022-10-17T16:31:17.548Z,14.50
2022-10-17T16:33:43.750Z,9.85
2022-10-17T16:36:10.403Z,13.77
2022-10-17T16:38:36.645Z,12.55
2022-10-17T16:41:03.071Z,11.93
2022-10-17T16:43:32.168Z,7.18
2022-10-17T16:45:58.378Z,8.75
2022-10-17T16:48:29.524Z,8.43
2022-10-17T16:50:56.133Z,12.00
2022-10-17T16:53:22.645Z,13.95
2022-10-17T16:55:59.167Z,8.75
2022-10-17T16:58:27.344Z,10.95
2022-10-17T17:00:53.802Z,12.10
2022-10-17T17:03:20.095Z,11.73
2022-10-17T17:05:50.163Z,16.35
2022-10-17T17:08:16.436Z,16.48
2022-10-17T17:10:46.123Z,18.63
2022-10-17T17:13:12.575Z,18.87
2022-10-17T17:15:38.821Z,23.40
2022-10-17T17:18:06.020Z,14.40
2022-10-17T17:20:33.026Z,16.38
2022-10-17T17:22:59.254Z,13.32
2022-10-17T17:25:25.565Z,17.40
2022-10-17T17:27:51.781Z,19.02
2022-10-17T17:30:18.194Z,17.20
2022-10-17T17:32:44.468Z,25.50
2022-10-17T17:35:10.710Z,15.27
2022-10-17T17:37:37.024Z,18.98
2022-10-17T17:40:03.353Z,16.35
2022-10-17T17:42:29.556Z,25.50
2022-10-17T17:44:55.762Z,20.90
2022-10-17T17:47:21.967Z,15.82
2022-10-17T17:49:48.345Z,20.08
2022-10-17T17:52:14.574Z,22.33
2022-10-17T17:54:41.161Z,19.45
2022-10-17T17:57:07.600Z,18.70
2022-10-17T17:59:33.859Z,18.88
2022-10-17T18:02:00.240Z,16.08
2022-10-17T18:04:28.067Z,17.85
2022-10-17T18:06:54.296Z,20.42
2022-10-17T18:09:21.300Z,16.80
2022-10-17T18:11:47.565Z,18.40
2022-10-17T18:14:13.947Z,20.23
2022-10-17T18:16:40.188Z,18.45
2022-10-17T18:19:07.443Z,17.58
2022-10-17T18:21:34.210Z,17.45
2022-10-17T18:24:00.840Z,18.88
2022-10-17T18:26:27.439Z,21.10
2022-10-17T18:28:53.739Z,18.75
2022-10-17T18:31:24.241Z,18.08
2022-10-17T18:33:51.528Z,25.63
2022-10-17T18:36:17.760Z,22.08
2022-10-17T18:38:44.026Z,21.83
2022-10-17T18:41:10.275Z,27.98
2022-10-17T18:43:37.491Z,15.65
2022-10-17T18:46:05.143Z,20.40
2022-10-17T18:48:31.800Z,18.95
2022-10-17T18:50:58.136Z,23.48
2022-10-17T18:53:24.474Z,14.63
2022-10-17T18:55:51.229Z,21.38
2022-10-17T18:58:19.525Z,17.73
2022-10-17T19:00:46.190Z,24.67
2022-10-17T19:03:12.454Z,17.88
2022-10-17T19:05:39.176Z,18.48
2022-10-17T19:08:05.428Z,20.75
2022-10-17T19:10:34.616Z,25.00
2022-10-17T19:13:00.966Z,19.98
2022-10-17T19:15:27.263Z,19.55
2022-10-17T19:17:53.508Z,21.58
2022-10-17T19:20:19.740Z,22.77
2022-10-17T19:22:46.004Z,23.20
2022-10-17T19:25:12.235Z,20.52
2022-10-17T19:27:38.495Z,18.00
2022-10-17T19:30:04.959Z,18.38
2022-10-17T19:32:32.912Z,19.40
2022-10-17T19:34:59.380Z,25.58
2022-10-17T19:37:25.603Z,22.50
2022-10-17T19:39:51.816Z,27.88
2022-10-17T19:42:18.052Z,31.30
2022-10-17T19:44:44.294Z,34.15
2022-10-17T19:47:10.504Z,24.48
2022-10-17T19:49:36.766Z,28.10
2022-10-17T19:52:03.048Z,22.88
2022-10-17T19:54:29.281Z,26.25
2022-10-17T19:56:55.578Z,28.02
2022-10-17T19:59:21.869Z,25.30
2022-10-17T20:01:48.212Z,29.88
2022-10-17T20:04:14.548Z,26.00
2022-10-17T20:06:41.198Z,25.60
2022-10-17T20:09:09.809Z,22.92
2022-10-17T20:11:38.704Z,24.40
2022-10-17T20:14:05.789Z,26.45
2022-10-17T20:16:32.731Z,20.77
2022-10-17T20:19:02.656Z,26.13
2022-10-17T20:21:32.276Z,23.03
2022-10-17T20:23:59.418Z,29.17
2022-10-17T20:26:37.500Z,21.35
2022-10-17T20:29:08.507Z,25.35
2022-10-17T20:31:35.074Z,26.03
2022-10-17T20:34:01.338Z,28.80
2022-10-17T20:36:27.535Z,27.90
2022-10-17T20:38:54.578Z,26.77
2022-10-17T20:41:20.854Z,29.17
2022-10-17T20:43:49.821Z,26.58
2022-10-17T20:46:29.497Z,37.30
2022-10-17T20:49:01.704Z,29.30
2022-10-17T20:51:28.011Z,32.78
2022-10-17T20:53:54.327Z,34.83
2022-10-17T20:56:21.942Z,30.30
2022-10-17T20:58:51.999Z,37.75
2022-10-17T21:01:18.335Z,31.50
2022-10-17T21:03:46.492Z,27.67
2022-10-17T21:06:13.086Z,28.90
2022-10-17T21:08:39.649Z,25.92
2022-10-17T21:11:07.085Z,25.75
2022-10-17T21:13:33.283Z,24.35
2022-10-17T21:16:10.180Z,23.98
2022-10-17T21:18:36.817Z,29.23
2022-10-17T21:21:06.666Z,24.27
2022-10-17T21:23:32.917Z,26.43
2022-10-17T21:25:59.524Z,30.35
2022-10-17T21:28:25.829Z,24.20
2022-10-17T21:30:52.146Z,24.17
2022-10-17T21:33:18.355Z,29.38
2022-10-17T21:35:44.578Z,29.45
2022-10-17T21:38:10.806Z,21.77
2022-10-17T21:40:37.016Z,25.67
2022-10-17T21:43:03.228Z,23.58
2022-10-17T21:45:29.441Z,25.35
2022-10-17T21:48:12.150Z,22.60
2022-10-17T21:50:39.007Z,21.80
2022-10-17T21:53:05.295Z,30.88
2022-10-17T21:55:31.509Z,29.85
2022-10-17T21:57:57.721Z,19.10
2022-10-17T22:00:24.022Z,21.08
2022-10-17T22:02:50.232Z,44.35
2022-10-17T22:05:16.447Z,87.03
2022-10-17T22:07:42.692Z,36.60
2022-10-17T22:10:09.022Z,19.08
2022-10-17T22:12:35.259Z,26.73
2022-10-17T22:15:01.661Z,25.38
2022-10-17T22:17:28.107Z,23.73
2022-10-17T22:19:54.497Z,27.92
2022-10-17T22:22:20.789Z,18.90
2022-10-17T22:24:47.013Z,23.83
2022-10-17T22:27:13.235Z,19.63
2022-10-17T22:29:39.605Z,60.80
2022-10-17T22:32:05.839Z,23.33
2022-10-17T22:34:32.064Z,19.23
2022-10-17T22:36:58.270Z,26.70
2022-10-17T22:39:24.490Z,28.73
2022-10-17T22:41:50.703Z,68.20
2022-10-17T22:44:16.969Z,40.97
2022-10-17T22:46:43.231Z,45.85
2022-10-17T22:49:09.563Z,22.38
2022-10-17T22:51:35.783Z,275.27
2022-10-17T22:54:02.000Z,144.00
2022-10-17T22:56:28.225Z,118.72
2022-10-17T22:58:54.432Z,162.88
2022-10-17T23:01:21.989Z,141.00
2022-10-17T23:03:48.579Z,60.10
2022-10-17T23:06:14.905Z,42.70
2022-10-17T23:08:41.138Z,12.95
2022-10-17T23:11:08.130Z,71.90
2022-10-17T23:13:34.958Z,59.08
2022-10-17T23:16:01.272Z,32.35
2022-10-17T23:18:27.618Z,19.80
2022-10-17T23:20:53.907Z,120.50
2022-10-17T23:23:20.619Z,125.35
2022-10-17T23:25:46.950Z,14.25
2022-10-17T23:28:13.724Z,13.65
2022-10-17T23:30:40.003Z,11.95
2022-10-17T23:33:06.741Z,36.22
2022-10-17T23:35:33.304Z,16.95
2022-10-17T23:37:59.905Z,12.88
2022-10-17T23:40:26.268Z,25.33
2022-10-17T23:42:52.553Z,14.40
2022-10-17T23:45:18.810Z,17.88
2022-10-17T23:47:45.194Z,11.10
2022-10-17T23:50:11.498Z,17.30
2022-10-17T23:52:37.716Z,57.30
2022-10-17T23:55:04.398Z,9.50
2022-10-17T23:57:30.832Z,14.38
2022-10-17T23:59:57.299Z,18.08
